sensor_id;sensor_type;location;lat;lon;timestamp;temperature;humidity
52211;DHT22;38179;52.756;6.906;2022-09-09T00:00:47;14.40;99.90
52211;DHT22;38179;52.756;6.906;2022-09-09T00:04:03;14.40;99.90
52211;DHT22;38179;52.756;6.906;2022-09-09T00:06:17;14.30;99.90
52211;DHT22;38179;52.756;6.906;2022-09-09T00:17:18;14.10;99.90
52211;DHT22;38179;52.756;6.906;2022-09-09T00:22:24;14.10;99.90
52211;DHT22;38179;52.756;6.906;2022-09-09T00:24:53;14.10;99.90
52211;DHT22;38179;52.756;6.906;2022-09-09T00:33:00;13.90;99.90
52211;DHT22;38179;52.756;6.906;2022-09-09T00:35:29;13.90;99.90
52211;DHT22;38179;52.756;6.906;2022-09-09T00:38:00;13.90;99.90
52211;DHT22;38179;52.756;6.906;2022-09-09T00:40:35;14.00;99.90
52211;DHT22;38179;52.756;6.906;2022-09-09T00:55:01;14.00;99.90
52211;DHT22;38179;52.756;6.906;2022-09-09T00:57:31;14.00;99.90
52211;DHT22;38179;52.756;6.906;2022-09-09T01:00:19;14.00;99.90
52211;DHT22;38179;52.756;6.906;2022-09-09T01:06:12;14.00;99.90
52211;DHT22;38179;52.756;6.906;2022-09-09T01:11:29;14.10;99.90
52211;DHT22;38179;52.756;6.906;2022-09-09T01:16:54;14.20;99.90
52211;DHT22;38179;52.756;6.906;2022-09-09T01:19:38;14.20;99.90
52211;DHT22;38179;52.756;6.906;2022-09-09T01:27:55;14.20;99.90
52211;DHT22;38179;52.756;6.906;2022-09-09T01:30:23;14.20;99.90
52211;DHT22;38179;52.756;6.906;2022-09-09T01:32:53;14.20;99.90
52211;DHT22;38179;52.756;6.906;2022-09-09T01:38:20;14.20;99.90
52211;DHT22;38179;52.756;6.906;2022-09-09T01:40:47;14.30;99.90
52211;DHT22;38179;52.756;6.906;2022-09-09T01:43:15;14.20;99.90
52211;DHT22;38179;52.756;6.906;2022-09-09T01:45:42;14.20;99.90
52211;DHT22;38179;52.756;6.906;2022-09-09T01:48:09;14.20;99.90
52211;DHT22;38179;52.756;6.906;2022-09-09T01:50:36;14.20;99.90
52211;DHT22;38179;52.756;6.906;2022-09-09T01:53:02;14.20;99.90
52211;DHT22;38179;52.756;6.906;2022-09-09T01:59:33;14.20;99.90
52211;DHT22;38179;52.756;6.906;2022-09-09T02:02:17;14.20;99.90
52211;DHT22;38179;52.756;6.906;2022-09-09T02:04:46;14.20;99.90
52211;DHT22;38179;52.756;6.906;2022-09-09T02:07:19;14.20;99.90
52211;DHT22;38179;52.756;6.906;2022-09-09T02:09:52;14.20;99.90
52211;DHT22;38179;52.756;6.906;2022-09-09T02:12:24;14.20;99.90
52211;DHT22;38179;52.756;6.906;2022-09-09T02:15:07;14.20;99.90
52211;DHT22;38179;52.756;6.906;2022-09-09T02:17:38;14.10;99.90
52211;DHT22;38179;52.756;6.906;2022-09-09T02:20:10;14.20;99.90
52211;DHT22;38179;52.756;6.906;2022-09-09T02:22:40;14.10;99.90
52211;DHT22;38179;52.756;6.906;2022-09-09T02:25:10;14.10;99.90
52211;DHT22;38179;52.756;6.906;2022-09-09T02:27:38;14.10;99.90
52211;DHT22;38179;52.756;6.906;2022-09-09T02:30:06;14.10;99.90
52211;DHT22;38179;52.756;6.906;2022-09-09T02:32:35;14.10;99.90
52211;DHT22;38179;52.756;6.906;2022-09-09T02:35:08;14.10;99.90
52211;DHT22;38179;52.756;6.906;2022-09-09T02:37:40;14.10;99.90
52211;DHT22;38179;52.756;6.906;2022-09-09T02:40:09;14.10;99.90
52211;DHT22;38179;52.756;6.906;2022-09-09T02:42:44;14.10;99.90
52211;DHT22;38179;52.756;6.906;2022-09-09T02:45:12;14.10;99.90
52211;DHT22;38179;52.756;6.906;2022-09-09T02:55:45;14.10;99.90
52211;DHT22;38179;52.756;6.906;2022-09-09T02:58:15;14.10;99.90
52211;DHT22;38179;52.756;6.906;2022-09-09T03:00:50;14.10;99.90
52211;DHT22;38179;52.756;6.906;2022-09-09T03:03:17;14.10;99.90
52211;DHT22;38179;52.756;6.906;2022-09-09T03:05:44;14.10;99.90
52211;DHT22;38179;52.756;6.906;2022-09-09T03:08:11;14.10;99.90
52211;DHT22;38179;52.756;6.906;2022-09-09T03:10:38;14.10;99.90
52211;DHT22;38179;52.756;6.906;2022-09-09T03:13:05;14.00;99.90
52211;DHT22;38179;52.756;6.906;2022-09-09T03:15:32;14.00;99.90
52211;DHT22;38179;52.756;6.906;2022-09-09T03:17:59;14.00;99.90
52211;DHT22;38179;52.756;6.906;2022-09-09T03:20:26;14.00;99.90
52211;DHT22;38179;52.756;6.906;2022-09-09T03:22:56;14.00;99.90
52211;DHT22;38179;52.756;6.906;2022-09-09T03:25:22;14.10;99.90
52211;DHT22;38179;52.756;6.906;2022-09-09T03:27:53;14.10;99.90
52211;DHT22;38179;52.756;6.906;2022-09-09T03:30:25;14.00;99.90
52211;DHT22;38179;52.756;6.906;2022-09-09T03:32:51;14.00;99.90
52211;DHT22;38179;52.756;6.906;2022-09-09T03:35:23;14.00;99.90
52211;DHT22;38179;52.756;6.906;2022-09-09T03:37:49;13.90;99.90
52211;DHT22;38179;52.756;6.906;2022-09-09T03:40:15;13.90;99.90
52211;DHT22;38179;52.756;6.906;2022-09-09T03:42:41;13.90;99.90
52211;DHT22;38179;52.756;6.906;2022-09-09T03:45:08;13.90;99.90
52211;DHT22;38179;52.756;6.906;2022-09-09T03:47:35;13.90;99.90
52211;DHT22;38179;52.756;6.906;2022-09-09T03:50:01;13.90;99.90
52211;DHT22;38179;52.756;6.906;2022-09-09T03:52:27;13.90;99.90
52211;DHT22;38179;52.756;6.906;2022-09-09T03:54:53;13.90;99.90
52211;DHT22;38179;52.756;6.906;2022-09-09T03:57:20;13.90;99.90
52211;DHT22;38179;52.756;6.906;2022-09-09T03:59:47;13.90;99.90
52211;DHT22;38179;52.756;6.906;2022-09-09T04:02:13;13.90;99.90
52211;DHT22;38179;52.756;6.906;2022-09-09T04:04:39;13.90;99.90
52211;DHT22;38179;52.756;6.906;2022-09-09T04:07:05;13.90;99.90
52211;DHT22;38179;52.756;6.906;2022-09-09T04:09:33;13.90;99.90
52211;DHT22;38179;52.756;6.906;2022-09-09T04:12:00;13.90;99.90
52211;DHT22;38179;52.756;6.906;2022-09-09T04:14:26;13.90;99.90
52211;DHT22;38179;52.756;6.906;2022-09-09T04:16:54;13.90;99.90
52211;DHT22;38179;52.756;6.906;2022-09-09T04:19:20;13.90;99.90
52211;DHT22;38179;52.756;6.906;2022-09-09T04:21:46;13.90;99.90
52211;DHT22;38179;52.756;6.906;2022-09-09T04:24:15;13.90;99.90
52211;DHT22;38179;52.756;6.906;2022-09-09T04:26:41;13.90;99.90
52211;DHT22;38179;52.756;6.906;2022-09-09T04:29:07;13.90;99.90
52211;DHT22;38179;52.756;6.906;2022-09-09T04:31:33;13.90;99.90
52211;DHT22;38179;52.756;6.906;2022-09-09T04:33:59;13.90;99.90
52211;DHT22;38179;52.756;6.906;2022-09-09T04:36:33;13.80;99.90
52211;DHT22;38179;52.756;6.906;2022-09-09T04:38:59;13.90;99.90
52211;DHT22;38179;52.756;6.906;2022-09-09T04:41:25;13.90;99.90
52211;DHT22;38179;52.756;6.906;2022-09-09T04:43:54;13.80;99.90
52211;DHT22;38179;52.756;6.906;2022-09-09T04:46:21;13.80;99.90
52211;DHT22;38179;52.756;6.906;2022-09-09T04:48:49;13.90;99.90
52211;DHT22;38179;52.756;6.906;2022-09-09T04:51:15;13.80;99.90
52211;DHT22;38179;52.756;6.906;2022-09-09T04:53:42;13.90;99.90
52211;DHT22;38179;52.756;6.906;2022-09-09T04:56:17;13.80;99.90
52211;DHT22;38179;52.756;6.906;2022-09-09T04:58:44;13.80;99.90
52211;DHT22;38179;52.756;6.906;2022-09-09T05:01:17;13.80;99.90
52211;DHT22;38179;52.756;6.906;2022-09-09T05:03:43;13.80;99.90
52211;DHT22;38179;52.756;6.906;2022-09-09T05:06:16;13.80;99.90
52211;DHT22;38179;52.756;6.906;2022-09-09T05:08:43;13.80;99.90
52211;DHT22;38179;52.756;6.906;2022-09-09T05:13:46;13.80;99.90
52211;DHT22;38179;52.756;6.906;2022-09-09T05:16:13;13.70;99.90
52211;DHT22;38179;52.756;6.906;2022-09-09T05:18:41;13.70;99.90
52211;DHT22;38179;52.756;6.906;2022-09-09T05:21:12;13.70;99.90
52211;DHT22;38179;52.756;6.906;2022-09-09T05:23:39;13.70;99.90
52211;DHT22;38179;52.756;6.906;2022-09-09T05:26:06;13.70;99.90
52211;DHT22;38179;52.756;6.906;2022-09-09T05:28:34;13.70;99.90
52211;DHT22;38179;52.756;6.906;2022-09-09T05:31:06;13.70;99.90
52211;DHT22;38179;52.756;6.906;2022-09-09T05:33:42;13.60;99.90
52211;DHT22;38179;52.756;6.906;2022-09-09T05:36:11;13.60;99.90
52211;DHT22;38179;52.756;6.906;2022-09-09T05:38:41;13.70;99.90
52211;DHT22;38179;52.756;6.906;2022-09-09T05:41:08;13.70;99.90
52211;DHT22;38179;52.756;6.906;2022-09-09T05:43:38;13.60;99.90
52211;DHT22;38179;52.756;6.906;2022-09-09T05:46:09;13.60;99.90
52211;DHT22;38179;52.756;6.906;2022-09-09T05:48:38;13.60;99.90
52211;DHT22;38179;52.756;6.906;2022-09-09T05:51:06;13.70;99.90
52211;DHT22;38179;52.756;6.906;2022-09-09T05:53:33;13.60;99.90
52211;DHT22;38179;52.756;6.906;2022-09-09T05:58:32;13.70;99.90
52211;DHT22;38179;52.756;6.906;2022-09-09T06:01:09;13.70;99.90
52211;DHT22;38179;52.756;6.906;2022-09-09T06:03:37;13.70;99.90
52211;DHT22;38179;52.756;6.906;2022-09-09T06:06:06;13.70;99.90
52211;DHT22;38179;52.756;6.906;2022-09-09T06:08:39;13.70;99.90
52211;DHT22;38179;52.756;6.906;2022-09-09T06:11:12;13.80;99.90
52211;DHT22;38179;52.756;6.906;2022-09-09T06:13:39;13.70;99.90
52211;DHT22;38179;52.756;6.906;2022-09-09T06:16:09;13.80;99.90
52211;DHT22;38179;52.756;6.906;2022-09-09T06:18:38;13.80;99.90
52211;DHT22;38179;52.756;6.906;2022-09-09T06:21:06;13.80;99.90
52211;DHT22;38179;52.756;6.906;2022-09-09T06:23:33;13.80;99.90
52211;DHT22;38179;52.756;6.906;2022-09-09T06:26:08;13.90;99.90
52211;DHT22;38179;52.756;6.906;2022-09-09T06:28:35;14.10;99.90
52211;DHT22;38179;52.756;6.906;2022-09-09T06:31:06;14.20;99.90
52211;DHT22;38179;52.756;6.906;2022-09-09T06:33:34;14.30;99.90
52211;DHT22;38179;52.756;6.906;2022-09-09T06:36:01;14.30;99.90
52211;DHT22;38179;52.756;6.906;2022-09-09T06:38:27;14.40;99.90
52211;DHT22;38179;52.756;6.906;2022-09-09T06:40:58;14.30;99.90
52211;DHT22;38179;52.756;6.906;2022-09-09T06:43:28;14.30;99.90
52211;DHT22;38179;52.756;6.906;2022-09-09T06:46:06;14.20;99.90
52211;DHT22;38179;52.756;6.906;2022-09-09T06:48:34;14.20;99.90
52211;DHT22;38179;52.756;6.906;2022-09-09T06:51:10;14.20;99.90
52211;DHT22;38179;52.756;6.906;2022-09-09T06:53:38;14.10;99.90
52211;DHT22;38179;52.756;6.906;2022-09-09T06:58:37;14.10;99.90
52211;DHT22;38179;52.756;6.906;2022-09-09T07:01:14;14.10;99.90
52211;DHT22;38179;52.756;6.906;2022-09-09T07:03:40;14.10;99.90
52211;DHT22;38179;52.756;6.906;2022-09-09T07:06:12;14.10;99.90
52211;DHT22;38179;52.756;6.906;2022-09-09T07:08:39;14.10;99.90
52211;DHT22;38179;52.756;6.906;2022-09-09T07:13:48;14.20;99.90
52211;DHT22;38179;52.756;6.906;2022-09-09T07:16:35;14.30;99.90
52211;DHT22;38179;52.756;6.906;2022-09-09T07:19:22;14.40;99.90
52211;DHT22;38179;52.756;6.906;2022-09-09T07:22:27;14.40;99.90
52211;DHT22;38179;52.756;6.906;2022-09-09T07:28:28;14.40;99.90
52211;DHT22;38179;52.756;6.906;2022-09-09T07:44:39;14.40;99.90
52211;DHT22;38179;52.756;6.906;2022-09-09T07:47:15;14.90;99.90
52211;DHT22;38179;52.756;6.906;2022-09-09T08:01:43;15.40;99.90
52211;DHT22;38179;52.756;6.906;2022-09-09T08:04:16;15.40;99.90
52211;DHT22;38179;52.756;6.906;2022-09-09T08:09:18;15.60;99.90
52211;DHT22;38179;52.756;6.906;2022-09-09T08:11:45;15.70;99.90
52211;DHT22;38179;52.756;6.906;2022-09-09T08:14:12;15.80;99.90
52211;DHT22;38179;52.756;6.906;2022-09-09T08:16:44;15.80;99.90
52211;DHT22;38179;52.756;6.906;2022-09-09T08:19:10;15.90;99.90
52211;DHT22;38179;52.756;6.906;2022-09-09T08:21:39;16.00;99.90
52211;DHT22;38179;52.756;6.906;2022-09-09T08:24:10;16.00;99.90
52211;DHT22;38179;52.756;6.906;2022-09-09T08:26:40;16.10;99.90
52211;DHT22;38179;52.756;6.906;2022-09-09T08:29:13;16.10;99.90
52211;DHT22;38179;52.756;6.906;2022-09-09T08:31:53;16.10;99.90
52211;DHT22;38179;52.756;6.906;2022-09-09T08:34:33;16.10;99.90
52211;DHT22;38179;52.756;6.906;2022-09-09T08:37:36;16.10;99.90
52211;DHT22;38179;52.756;6.906;2022-09-09T08:43:31;16.20;99.90
52211;DHT22;38179;52.756;6.906;2022-09-09T08:46:09;16.20;99.90
52211;DHT22;38179;52.756;6.906;2022-09-09T08:51:10;16.20;99.90
52211;DHT22;38179;52.756;6.906;2022-09-09T08:53:49;16.20;99.90
52211;DHT22;38179;52.756;6.906;2022-09-09T08:56:23;16.20;99.90
52211;DHT22;38179;52.756;6.906;2022-09-09T09:07:33;16.40;99.90
52211;DHT22;38179;52.756;6.906;2022-09-09T09:12:49;16.50;99.90
52211;DHT22;38179;52.756;6.906;2022-09-09T09:15:22;16.50;99.90
52211;DHT22;38179;52.756;6.906;2022-09-09T09:17:48;16.50;99.90
52211;DHT22;38179;52.756;6.906;2022-09-09T09:20:16;16.50;99.90
52211;DHT22;38179;52.756;6.906;2022-09-09T09:22:46;16.50;99.90
52211;DHT22;38179;52.756;6.906;2022-09-09T09:25:20;16.60;99.90
52211;DHT22;38179;52.756;6.906;2022-09-09T09:27:59;16.70;99.90
52211;DHT22;38179;52.756;6.906;2022-09-09T09:30:40;16.80;99.90
52211;DHT22;38179;52.756;6.906;2022-09-09T09:35:59;16.80;99.90
52211;DHT22;38179;52.756;6.906;2022-09-09T09:38:27;16.90;99.90
52211;DHT22;38179;52.756;6.906;2022-09-09T09:40:58;17.00;99.90
52211;DHT22;38179;52.756;6.906;2022-09-09T09:43:36;17.00;99.90
52211;DHT22;38179;52.756;6.906;2022-09-09T09:46:19;17.10;99.90
52211;DHT22;38179;52.756;6.906;2022-09-09T09:48:45;17.20;99.90
52211;DHT22;38179;52.756;6.906;2022-09-09T09:51:22;17.20;99.90
52211;DHT22;38179;52.756;6.906;2022-09-09T09:53:50;17.40;99.90
52211;DHT22;38179;52.756;6.906;2022-09-09T09:56:27;17.40;99.90
52211;DHT22;38179;52.756;6.906;2022-09-09T09:58:55;17.50;99.90
52211;DHT22;38179;52.756;6.906;2022-09-09T10:01:31;17.50;99.90
52211;DHT22;38179;52.756;6.906;2022-09-09T10:04:13;17.50;99.90
52211;DHT22;38179;52.756;6.906;2022-09-09T10:06:41;17.50;99.90
52211;DHT22;38179;52.756;6.906;2022-09-09T10:09:28;17.50;99.90
52211;DHT22;38179;52.756;6.906;2022-09-09T10:15:17;17.60;99.90
52211;DHT22;38179;52.756;6.906;2022-09-09T10:17:56;17.60;99.90
52211;DHT22;38179;52.756;6.906;2022-09-09T10:20:50;17.60;99.90
52211;DHT22;38179;52.756;6.906;2022-09-09T10:23:46;17.70;99.90
52211;DHT22;38179;52.756;6.906;2022-09-09T10:32:23;17.90;99.90
52211;DHT22;38179;52.756;6.906;2022-09-09T10:34:56;18.00;99.90
52211;DHT22;38179;52.756;6.906;2022-09-09T10:42:47;18.40;99.90
52211;DHT22;38179;52.756;6.906;2022-09-09T10:45:23;18.50;99.90
52211;DHT22;38179;52.756;6.906;2022-09-09T10:48:30;18.60;99.90
52211;DHT22;38179;52.756;6.906;2022-09-09T10:53:36;18.70;99.90
52211;DHT22;38179;52.756;6.906;2022-09-09T10:56:09;18.80;99.90
52211;DHT22;38179;52.756;6.906;2022-09-09T10:58:59;18.80;99.90
52211;DHT22;38179;52.756;6.906;2022-09-09T11:01:30;18.90;99.90
52211;DHT22;38179;52.756;6.906;2022-09-09T11:04:03;18.80;99.90
52211;DHT22;38179;52.756;6.906;2022-09-09T11:06:37;18.70;99.90
52211;DHT22;38179;52.756;6.906;2022-09-09T11:09:05;18.60;99.90
52211;DHT22;38179;52.756;6.906;2022-09-09T11:11:42;18.50;99.90
52211;DHT22;38179;52.756;6.906;2022-09-09T11:14:18;18.50;99.90
52211;DHT22;38179;52.756;6.906;2022-09-09T11:19:33;18.40;99.90
52211;DHT22;38179;52.756;6.906;2022-09-09T11:22:02;18.50;99.90
52211;DHT22;38179;52.756;6.906;2022-09-09T11:24:39;18.70;99.90
52211;DHT22;38179;52.756;6.906;2022-09-09T11:27:08;18.80;99.90
52211;DHT22;38179;52.756;6.906;2022-09-09T11:35:24;19.00;99.90
52211;DHT22;38179;52.756;6.906;2022-09-09T11:38:15;19.00;99.90
52211;DHT22;38179;52.756;6.906;2022-09-09T11:40:41;19.10;99.90
52211;DHT22;38179;52.756;6.906;2022-09-09T11:43:13;19.10;99.90
52211;DHT22;38179;52.756;6.906;2022-09-09T11:45:41;19.10;99.90
52211;DHT22;38179;52.756;6.906;2022-09-09T11:48:25;19.00;99.90
52211;DHT22;38179;52.756;6.906;2022-09-09T11:51:07;18.90;99.90
52211;DHT22;38179;52.756;6.906;2022-09-09T11:53:35;18.90;99.90
52211;DHT22;38179;52.756;6.906;2022-09-09T11:58:29;18.90;99.90
52211;DHT22;38179;52.756;6.906;2022-09-09T12:00:58;18.90;99.90
52211;DHT22;38179;52.756;6.906;2022-09-09T12:03:39;18.90;99.90
52211;DHT22;38179;52.756;6.906;2022-09-09T12:06:29;18.80;99.90
52211;DHT22;38179;52.756;6.906;2022-09-09T12:11:43;18.90;99.90
52211;DHT22;38179;52.756;6.906;2022-09-09T12:14:23;18.90;99.90
52211;DHT22;38179;52.756;6.906;2022-09-09T12:17:51;19.10;99.90
52211;DHT22;38179;52.756;6.906;2022-09-09T12:20:11;19.10;99.90
52211;DHT22;38179;52.756;6.906;2022-09-09T12:31:05;19.00;99.90
52211;DHT22;38179;52.756;6.906;2022-09-09T12:33:35;18.90;99.90
52211;DHT22;38179;52.756;6.906;2022-09-09T12:36:04;18.80;99.90
52211;DHT22;38179;52.756;6.906;2022-09-09T12:38:35;18.90;99.90
52211;DHT22;38179;52.756;6.906;2022-09-09T12:41:02;18.80;99.90
52211;DHT22;38179;52.756;6.906;2022-09-09T12:43:29;18.90;99.90
52211;DHT22;38179;52.756;6.906;2022-09-09T12:46:01;18.80;99.90
52211;DHT22;38179;52.756;6.906;2022-09-09T12:48:51;18.80;99.90
52211;DHT22;38179;52.756;6.906;2022-09-09T12:51:44;18.90;99.90
52211;DHT22;38179;52.756;6.906;2022-09-09T12:54:13;19.10;99.90
52211;DHT22;38179;52.756;6.906;2022-09-09T12:59:27;19.40;99.90
52211;DHT22;38179;52.756;6.906;2022-09-09T13:02:01;19.50;99.90
52211;DHT22;38179;52.756;6.906;2022-09-09T13:04:27;19.50;99.90
52211;DHT22;38179;52.756;6.906;2022-09-09T13:06:53;19.40;99.90
52211;DHT22;38179;52.756;6.906;2022-09-09T13:09:20;19.30;99.90
52211;DHT22;38179;52.756;6.906;2022-09-09T13:11:51;19.20;99.90
52211;DHT22;38179;52.756;6.906;2022-09-09T13:14:27;19.10;99.90
52211;DHT22;38179;52.756;6.906;2022-09-09T13:16:56;18.90;99.90
52211;DHT22;38179;52.756;6.906;2022-09-09T13:19:23;18.60;99.90
52211;DHT22;38179;52.756;6.906;2022-09-09T13:21:53;18.20;99.90
52211;DHT22;38179;52.756;6.906;2022-09-09T13:24:29;18.00;99.90
52211;DHT22;38179;52.756;6.906;2022-09-09T13:29:28;17.80;99.90
52211;DHT22;38179;52.756;6.906;2022-09-09T13:31:54;17.70;99.90
52211;DHT22;38179;52.756;6.906;2022-09-09T13:34:34;17.80;99.90
52211;DHT22;38179;52.756;6.906;2022-09-09T13:37:06;17.90;99.90
52211;DHT22;38179;52.756;6.906;2022-09-09T13:39:38;18.00;99.90
52211;DHT22;38179;52.756;6.906;2022-09-09T13:42:04;18.10;99.90
52211;DHT22;38179;52.756;6.906;2022-09-09T13:44:36;18.10;99.90
52211;DHT22;38179;52.756;6.906;2022-09-09T13:47:18;18.20;99.90
52211;DHT22;38179;52.756;6.906;2022-09-09T13:49:49;18.30;99.90
52211;DHT22;38179;52.756;6.906;2022-09-09T13:52:17;18.30;99.90
52211;DHT22;38179;52.756;6.906;2022-09-09T13:54:49;18.40;99.90
52211;DHT22;38179;52.756;6.906;2022-09-09T13:57:21;18.40;99.90
52211;DHT22;38179;52.756;6.906;2022-09-09T13:59:51;18.50;99.90
52211;DHT22;38179;52.756;6.906;2022-09-09T14:02:18;18.50;99.90
52211;DHT22;38179;52.756;6.906;2022-09-09T14:04:44;18.60;99.90
52211;DHT22;38179;52.756;6.906;2022-09-09T14:07:15;18.60;99.90
52211;DHT22;38179;52.756;6.906;2022-09-09T14:09:42;18.60;99.90
52211;DHT22;38179;52.756;6.906;2022-09-09T14:12:12;18.40;99.90
52211;DHT22;38179;52.756;6.906;2022-09-09T14:14:40;18.10;99.90
52211;DHT22;38179;52.756;6.906;2022-09-09T14:17:09;17.80;99.90
52211;DHT22;38179;52.756;6.906;2022-09-09T14:19:37;17.50;99.90
52211;DHT22;38179;52.756;6.906;2022-09-09T14:22:06;17.20;99.90
52211;DHT22;38179;52.756;6.906;2022-09-09T14:24:36;17.00;99.90
52211;DHT22;38179;52.756;6.906;2022-09-09T14:27:02;16.80;99.90
52211;DHT22;38179;52.756;6.906;2022-09-09T14:29:28;16.70;99.90
52211;DHT22;38179;52.756;6.906;2022-09-09T14:31:54;16.60;99.90
52211;DHT22;38179;52.756;6.906;2022-09-09T14:34:20;16.60;99.90
52211;DHT22;38179;52.756;6.906;2022-09-09T14:36:46;16.60;99.90
52211;DHT22;38179;52.756;6.906;2022-09-09T14:39:12;16.70;99.90
52211;DHT22;38179;52.756;6.906;2022-09-09T14:41:38;16.70;99.90
52211;DHT22;38179;52.756;6.906;2022-09-09T14:44:04;16.80;99.90
52211;DHT22;38179;52.756;6.906;2022-09-09T14:46:29;17.00;99.90
52211;DHT22;38179;52.756;6.906;2022-09-09T14:48:56;17.20;99.90
52211;DHT22;38179;52.756;6.906;2022-09-09T14:51:24;17.40;99.90
52211;DHT22;38179;52.756;6.906;2022-09-09T14:53:55;17.60;99.90
52211;DHT22;38179;52.756;6.906;2022-09-09T14:56:23;17.60;99.90
52211;DHT22;38179;52.756;6.906;2022-09-09T14:58:50;17.50;99.90
52211;DHT22;38179;52.756;6.906;2022-09-09T15:01:18;17.50;99.90
52211;DHT22;38179;52.756;6.906;2022-09-09T15:03:53;17.50;99.90
52211;DHT22;38179;52.756;6.906;2022-09-09T15:06:20;17.50;99.90
52211;DHT22;38179;52.756;6.906;2022-09-09T15:08:47;17.50;99.90
52211;DHT22;38179;52.756;6.906;2022-09-09T15:11:14;17.60;99.90
52211;DHT22;38179;52.756;6.906;2022-09-09T15:13:42;17.60;99.90
52211;DHT22;38179;52.756;6.906;2022-09-09T15:16:16;17.70;99.90
52211;DHT22;38179;52.756;6.906;2022-09-09T15:18:43;17.70;99.90
52211;DHT22;38179;52.756;6.906;2022-09-09T15:21:15;17.80;99.90
52211;DHT22;38179;52.756;6.906;2022-09-09T15:23:42;17.90;99.90
52211;DHT22;38179;52.756;6.906;2022-09-09T15:26:09;17.90;99.90
52211;DHT22;38179;52.756;6.906;2022-09-09T15:28:37;17.80;99.90
52211;DHT22;38179;52.756;6.906;2022-09-09T15:31:11;17.80;99.90
52211;DHT22;38179;52.756;6.906;2022-09-09T15:33:37;17.80;99.90
52211;DHT22;38179;52.756;6.906;2022-09-09T15:36:16;17.80;99.90
52211;DHT22;38179;52.756;6.906;2022-09-09T15:38:43;17.80;99.90
52211;DHT22;38179;52.756;6.906;2022-09-09T15:41:10;17.80;99.90
52211;DHT22;38179;52.756;6.906;2022-09-09T15:43:36;17.70;99.90
52211;DHT22;38179;52.756;6.906;2022-09-09T15:49:15;17.70;99.90
52211;DHT22;38179;52.756;6.906;2022-09-09T15:51:50;17.70;99.90
52211;DHT22;38179;52.756;6.906;2022-09-09T15:54:21;17.70;99.90
52211;DHT22;38179;52.756;6.906;2022-09-09T15:56:51;17.70;99.90
52211;DHT22;38179;52.756;6.906;2022-09-09T15:59:18;17.70;99.90
52211;DHT22;38179;52.756;6.906;2022-09-09T16:01:44;17.70;99.90
52211;DHT22;38179;52.756;6.906;2022-09-09T16:04:10;17.70;99.90
52211;DHT22;38179;52.756;6.906;2022-09-09T16:06:36;17.80;99.90
52211;DHT22;38179;52.756;6.906;2022-09-09T16:09:04;17.80;99.90
52211;DHT22;38179;52.756;6.906;2022-09-09T16:11:35;17.90;99.90
52211;DHT22;38179;52.756;6.906;2022-09-09T16:14:02;17.90;99.90
52211;DHT22;38179;52.756;6.906;2022-09-09T16:16:29;17.80;99.90
52211;DHT22;38179;52.756;6.906;2022-09-09T16:18:58;17.80;99.90
52211;DHT22;38179;52.756;6.906;2022-09-09T16:21:28;17.80;99.90
52211;DHT22;38179;52.756;6.906;2022-09-09T16:23:58;17.80;99.90
52211;DHT22;38179;52.756;6.906;2022-09-09T16:26:29;17.70;99.90
52211;DHT22;38179;52.756;6.906;2022-09-09T16:28:55;17.70;99.90
52211;DHT22;38179;52.756;6.906;2022-09-09T16:31:25;17.70;99.90
52211;DHT22;38179;52.756;6.906;2022-09-09T16:33:51;17.70;99.90
52211;DHT22;38179;52.756;6.906;2022-09-09T16:36:27;17.70;99.90
52211;DHT22;38179;52.756;6.906;2022-09-09T16:39:00;17.70;99.90
52211;DHT22;38179;52.756;6.906;2022-09-09T16:41:27;17.70;99.90
52211;DHT22;38179;52.756;6.906;2022-09-09T16:44:08;17.70;99.90
52211;DHT22;38179;52.756;6.906;2022-09-09T16:46:36;17.70;99.90
52211;DHT22;38179;52.756;6.906;2022-09-09T16:49:05;17.70;99.90
52211;DHT22;38179;52.756;6.906;2022-09-09T16:51:34;17.70;99.90
52211;DHT22;38179;52.756;6.906;2022-09-09T16:54:03;17.70;99.90
52211;DHT22;38179;52.756;6.906;2022-09-09T16:56:31;17.70;99.90
52211;DHT22;38179;52.756;6.906;2022-09-09T16:59:01;17.70;99.90
52211;DHT22;38179;52.756;6.906;2022-09-09T17:01:30;17.70;99.90
52211;DHT22;38179;52.756;6.906;2022-09-09T17:03:59;17.70;99.90
52211;DHT22;38179;52.756;6.906;2022-09-09T17:06:27;17.70;99.90
52211;DHT22;38179;52.756;6.906;2022-09-09T17:08:58;17.70;99.90
52211;DHT22;38179;52.756;6.906;2022-09-09T17:11:26;17.70;99.90
52211;DHT22;38179;52.756;6.906;2022-09-09T17:13:55;17.70;99.90
52211;DHT22;38179;52.756;6.906;2022-09-09T17:16:24;17.60;99.90
52211;DHT22;38179;52.756;6.906;2022-09-09T17:18:52;17.60;99.90
52211;DHT22;38179;52.756;6.906;2022-09-09T17:21:22;17.60;99.90
52211;DHT22;38179;52.756;6.906;2022-09-09T17:23:49;17.50;99.90
52211;DHT22;38179;52.756;6.906;2022-09-09T17:26:17;17.50;99.90
52211;DHT22;38179;52.756;6.906;2022-09-09T17:28:44;17.60;99.90
52211;DHT22;38179;52.756;6.906;2022-09-09T17:31:17;17.50;99.90
52211;DHT22;38179;52.756;6.906;2022-09-09T17:33:45;17.50;99.90
52211;DHT22;38179;52.756;6.906;2022-09-09T17:36:20;17.50;99.90
52211;DHT22;38179;52.756;6.906;2022-09-09T17:38:48;17.50;99.90
52211;DHT22;38179;52.756;6.906;2022-09-09T17:41:20;17.60;99.90
52211;DHT22;38179;52.756;6.906;2022-09-09T17:43:48;17.60;99.90
52211;DHT22;38179;52.756;6.906;2022-09-09T17:46:19;17.50;99.90
52211;DHT22;38179;52.756;6.906;2022-09-09T17:48:47;17.50;99.90
52211;DHT22;38179;52.756;6.906;2022-09-09T17:51:17;17.50;99.90
52211;DHT22;38179;52.756;6.906;2022-09-09T17:53:50;17.40;99.90
52211;DHT22;38179;52.756;6.906;2022-09-09T17:56:18;17.40;99.90
52211;DHT22;38179;52.756;6.906;2022-09-09T17:58:48;17.40;99.90
52211;DHT22;38179;52.756;6.906;2022-09-09T18:01:26;17.40;99.90
52211;DHT22;38179;52.756;6.906;2022-09-09T18:03:54;17.30;99.90
52211;DHT22;38179;52.756;6.906;2022-09-09T18:06:24;17.30;99.90
52211;DHT22;38179;52.756;6.906;2022-09-09T18:08:54;17.30;99.90
52211;DHT22;38179;52.756;6.906;2022-09-09T18:11:22;17.30;99.90
52211;DHT22;38179;52.756;6.906;2022-09-09T18:13:53;17.30;99.90
52211;DHT22;38179;52.756;6.906;2022-09-09T18:16:20;17.20;99.90
52211;DHT22;38179;52.756;6.906;2022-09-09T18:18:49;17.20;99.90
52211;DHT22;38179;52.756;6.906;2022-09-09T18:21:17;17.20;99.90
52211;DHT22;38179;52.756;6.906;2022-09-09T18:23:45;17.20;99.90
52211;DHT22;38179;52.756;6.906;2022-09-09T18:26:16;17.20;99.90
52211;DHT22;38179;52.756;6.906;2022-09-09T18:28:46;17.20;99.90
52211;DHT22;38179;52.756;6.906;2022-09-09T18:31:15;17.20;99.90
52211;DHT22;38179;52.756;6.906;2022-09-09T18:33:43;17.10;99.90
52211;DHT22;38179;52.756;6.906;2022-09-09T18:36:20;17.20;99.90
52211;DHT22;38179;52.756;6.906;2022-09-09T18:38:47;17.10;99.90
52211;DHT22;38179;52.756;6.906;2022-09-09T18:41:28;17.10;99.90